Time;durP1;ratioP1;P1;durP2;ratioP2;P2;SDS_P1;SDS_P2;PMS_P1;PMS_P2;Temp;Humidity;BMP_temperature;BMP_pressure;BME280_temperature;BME280_humidity;BME280_pressure;Samples;Min_cycle;Max_cycle;Signal;HPM_P1;HPM_P2
2022/10/21 00:00:30;;;;;;;3.97;2.33;;;11.20;99.90;11.20;100574.00;;;;4945271;28;109129;-60
2022/10/21 00:02:56;;;;;;;5.20;3.27;;;11.20;99.90;11.20;100579.00;;;;4950606;28;122993;-60
2022/10/21 00:05:22;;;;;;;4.73;2.67;;;11.20;99.90;11.20;100583.00;;;;4946224;28;93020;-57
2022/10/21 00:07:48;;;;;;;3.70;2.67;;;11.20;99.90;11.20;100573.00;;;;4942451;28;93214;-59
2022/10/21 00:10:13;;;;;;;4.03;2.90;;;11.20;99.90;11.20;100589.00;;;;4950953;28;108202;-57
2022/10/21 00:12:39;;;;;;;5.83;2.60;;;11.20;99.90;11.20;100591.00;;;;4941954;28;119556;-60
2022/10/21 00:15:07;;;;;;;4.40;2.50;;;11.20;99.90;11.20;100594.00;;;;4945103;28;119245;-59
2022/10/21 00:17:41;;;;;;;5.17;3.17;;;11.30;99.90;11.20;100590.00;;;;4950476;28;102443;-58
2022/10/21 00:20:10;;;;;;;3.00;2.30;;;11.30;99.90;11.20;100601.00;;;;4948894;28;93814;-60
2022/10/21 00:22:37;;;;;;;3.33;2.60;;;11.20;99.90;11.10;100587.00;;;;4943280;28;100301;-59
2022/10/21 00:25:03;;;;;;;5.23;3.40;;;11.20;99.90;11.10;100591.00;;;;4949456;28;122037;-60
2022/10/21 00:27:29;;;;;;;4.13;2.60;;;11.20;99.90;11.10;100594.00;;;;4941811;28;92837;-59
2022/10/21 00:29:55;;;;;;;3.87;2.97;;;11.20;99.90;11.20;100576.00;;;;4949292;28;93944;-60
2022/10/21 00:32:21;;;;;;;4.10;3.03;;;11.20;99.90;11.20;100587.00;;;;4945880;28;122944;-57
2022/10/21 00:34:47;;;;;;;5.93;3.17;;;11.20;99.90;11.10;100575.00;;;;4943725;28;120556;-59
2022/10/21 00:37:13;;;;;;;5.23;3.30;;;11.20;99.90;11.10;100556.00;;;;4951367;28;92041;-60
2022/10/21 00:39:39;;;;;;;4.20;2.20;;;11.20;99.90;11.10;100558.00;;;;4952038;28;108482;-58
2022/10/21 00:42:09;;;;;;;3.30;2.20;;;11.10;99.90;11.10;100556.00;;;;4949710;28;106675;-59
2022/10/21 00:44:36;;;;;;;4.57;2.30;;;11.10;99.90;11.10;100546.00;;;;4952681;28;115342;-57
2022/10/21 00:47:10;;;;;;;2.97;2.13;;;11.10;99.90;11.00;100544.00;;;;4943370;28;108919;-59
2022/10/21 00:49:49;;;;;;;3.50;2.73;;;11.10;99.90;11.00;100555.00;;;;4950032;28;98642;-59
2022/10/21 00:52:21;;;;;;;3.40;1.83;;;11.10;99.90;11.00;100551.00;;;;4951789;28;108911;-57
2022/10/21 00:54:52;;;;;;;2.73;2.53;;;11.00;99.90;11.00;100543.00;;;;4952962;28;113119;-60
2022/10/21 00:57:19;;;;;;;3.27;2.50;;;11.10;99.90;11.00;100540.00;;;;4951938;28;93137;-60
2022/10/21 00:59:51;;;;;;;4.50;3.10;;;11.10;99.90;11.00;100541.00;;;;4951595;28;99462;-59
2022/10/21 01:02:17;;;;;;;4.27;3.87;;;11.10;99.90;11.00;100533.00;;;;4948920;28;108555;-59
2022/10/21 01:04:44;;;;;;;3.27;2.37;;;11.10;99.90;11.00;100528.00;;;;4941693;28;122760;-60
2022/10/21 01:07:10;;;;;;;6.87;2.97;;;11.10;99.90;11.10;100528.00;;;;4952987;28;98873;-60
2022/10/21 01:09:36;;;;;;;3.10;2.80;;;11.10;99.90;11.10;100527.00;;;;4944521;28;96110;-60
2022/10/21 01:12:07;;;;;;;6.37;2.37;;;11.10;99.90;11.10;100525.00;;;;4948490;28;122951;-60
2022/10/21 01:14:56;;;;;;;2.60;2.17;;;11.10;99.90;11.10;100538.00;;;;4965019;28;93138;-59
2022/10/21 01:17:46;;;;;;;4.77;2.80;;;11.10;99.90;11.10;100533.00;;;;4952953;28;92815;-59
2022/10/21 01:20:57;;;;;;;5.47;2.93;;;11.20;99.90;11.10;100537.00;;;;4965926;28;101908;-59
2022/10/21 01:24:17;;;;;;;3.40;3.10;;;11.20;99.90;11.10;100512.00;;;;4962721;28;93697;-60
2022/10/21 01:27:07;;;;;;;4.50;3.20;;;11.20;99.90;11.00;100515.00;;;;4948702;28;112854;-60
2022/10/21 01:30:01;;;;;;;6.90;3.17;;;11.10;99.90;10.90;100516.00;;;;4941914;28;103537;-61
2022/10/21 01:32:46;;;;;;;4.13;2.93;;;11.00;99.90;10.70;100486.00;;;;4948922;28;93134;-62
2022/10/21 01:35:50;;;;;;;3.57;2.47;;;10.80;99.90;10.60;100482.00;;;;4965544;28;93946;-63
2022/10/21 01:38:30;;;;;;;5.10;3.47;;;10.70;99.90;10.50;100501.00;;;;4951625;28;93848;-63
2022/10/21 01:41:02;;;;;;;4.33;2.97;;;10.60;99.90;10.40;100481.00;;;;4949408;28;103353;-63
2022/10/21 01:43:40;;;;;;;6.63;3.57;;;10.50;99.90;10.30;100464.00;;;;4966705;28;102507;-63
2022/10/21 01:46:14;;;;;;;2.93;2.63;;;10.40;99.90;10.30;100452.00;;;;4948153;28;93078;-62
2022/10/21 01:48:47;;;;;;;3.00;2.40;;;10.40;99.90;10.20;100424.00;;;;4950649;28;116122;-63
2022/10/21 01:51:17;;;;;;;10.53;4.00;;;10.30;99.90;10.10;100432.00;;;;4953231;28;92896;-62
2022/10/21 01:54:02;;;;;;;7.03;3.20;;;10.20;99.90;10.00;100424.00;;;;4967526;28;92875;-62
2022/10/21 01:56:29;;;;;;;5.97;4.00;;;10.20;99.90;10.00;100419.00;;;;4964683;28;112138;-65
2022/10/21 01:58:55;;;;;;;4.67;3.57;;;10.10;99.90;10.00;100398.00;;;;4948422;28;108241;-64
2022/10/21 02:01:23;;;;;;;4.63;2.47;;;10.10;99.90;9.90;100409.00;;;;4942735;28;93024;-64
2022/10/21 02:03:55;;;;;;;6.33;3.60;;;10.00;99.90;9.90;100417.00;;;;4949877;28;108329;-64
2022/10/21 02:06:21;;;;;;;4.33;3.07;;;10.00;99.90;9.90;100417.00;;;;4962362;28;93284;-63
2022/10/21 02:08:47;;;;;;;4.73;3.43;;;10.00;99.90;9.90;100430.00;;;;4945969;28;93765;-63
2022/10/21 02:11:14;;;;;;;7.17;3.50;;;9.90;99.90;9.90;100414.00;;;;4953676;28;92715;-63
2022/10/21 02:14:22;;;;;;;10.53;3.97;;;10.00;99.90;9.80;100413.00;;;;4965615;28;93404;-63
2022/10/21 02:16:51;;;;;;;4.43;3.63;;;10.00;99.90;9.90;100409.00;;;;4906271;28;117149;-63
2022/10/21 02:19:19;;;;;;;4.77;3.83;;;10.00;99.90;9.90;100406.00;;;;4918515;28;109748;-63
2022/10/21 02:21:48;;;;;;;7.97;4.03;;;9.90;99.90;9.90;100402.00;;;;4925775;28;92469;-63
2022/10/21 02:24:50;;;;;;;4.37;3.17;;;10.00;99.90;9.90;100407.00;;;;4966166;28;93006;-63
2022/10/21 02:27:16;;;;;;;6.23;3.97;;;10.00;99.90;9.90;100406.00;;;;4945648;28;93213;-63
2022/10/21 02:29:45;;;;;;;5.10;3.20;;;10.00;99.90;9.90;100404.00;;;;4950174;28;93719;-63
2022/10/21 02:33:01;;;;;;;5.40;3.47;;;10.00;99.90;9.90;100386.00;;;;4951329;28;102922;-63
2022/10/21 02:36:01;;;;;;;3.93;3.13;;;10.00;99.90;9.90;100377.00;;;;4936990;28;92886;-63
2022/10/21 02:38:31;;;;;;;4.27;3.17;;;10.10;99.90;10.00;100388.00;;;;4975368;28;115466;-63
2022/10/21 02:41:17;;;;;;;3.47;3.10;;;10.10;99.90;10.00;100396.00;;;;4945539;28;114778;-63
2022/10/21 02:44:00;;;;;;;3.37;3.07;;;10.10;99.90;10.00;100395.00;;;;4944247;28;92568;-63
2022/10/21 02:46:36;;;;;;;4.80;3.80;;;10.10;99.90;10.00;100403.00;;;;4951126;28;92851;-62
2022/10/21 02:49:03;;;;;;;5.17;3.43;;;10.10;99.90;10.10;100397.00;;;;4945472;28;92995;-62
2022/10/21 02:51:29;;;;;;;3.40;3.10;;;10.20;99.90;10.10;100397.00;;;;4946967;28;93115;-62
2022/10/21 02:53:54;;;;;;;4.17;3.77;;;10.20;99.90;10.10;100410.00;;;;4953405;28;110498;-62
2022/10/21 02:56:20;;;;;;;8.50;3.93;;;10.20;99.90;10.10;100422.00;;;;4946622;28;108828;-62
2022/10/21 02:58:45;;;;;;;5.33;3.53;;;10.20;99.90;10.10;100427.00;;;;4947682;28;122343;-62
2022/10/21 03:01:11;;;;;;;4.97;3.53;;;10.20;99.90;10.20;100411.00;;;;4951523;28;122378;-62
2022/10/21 03:03:37;;;;;;;3.67;2.80;;;10.20;99.90;10.20;100413.00;;;;4945856;28;110466;-62
2022/10/21 03:06:02;;;;;;;3.50;2.97;;;10.30;99.90;10.20;100409.00;;;;4940272;28;108602;-62
2022/10/21 03:08:28;;;;;;;4.80;3.33;;;10.30;99.90;10.30;100416.00;;;;4934772;28;122946;-62
2022/10/21 03:10:54;;;;;;;4.63;2.87;;;10.40;99.90;10.30;100402.00;;;;4941413;28;122359;-61
2022/10/21 03:13:21;;;;;;;4.97;2.67;;;10.30;99.90;10.30;100394.00;;;;4947935;28;108819;-62
2022/10/21 03:15:50;;;;;;;6.53;3.93;;;10.30;99.90;10.30;100391.00;;;;4952505;28;92904;-62
2022/10/21 03:18:16;;;;;;;3.27;2.50;;;10.30;99.90;10.30;100387.00;;;;4949440;28;99265;-61
2022/10/21 03:20:43;;;;;;;2.77;2.40;;;10.30;99.90;10.30;100389.00;;;;4945964;28;102455;-59
2022/10/21 03:23:08;;;;;;;3.50;2.80;;;10.40;99.90;10.40;100394.00;;;;4950038;28;93053;-61
2022/10/21 03:25:34;;;;;;;4.43;2.87;;;10.40;99.90;10.50;100388.00;;;;4941917;28;108961;-61
2022/10/21 03:27:59;;;;;;;3.83;3.07;;;10.50;99.90;10.60;100386.00;;;;4938618;28;122720;-61
2022/10/21 03:30:25;;;;;;;10.63;4.00;;;10.60;99.90;10.70;100365.00;;;;4947399;28;93620;-61
2022/10/21 03:32:51;;;;;;;5.20;4.00;;;10.60;99.90;10.80;100390.00;;;;4942256;28;92721;-61
2022/10/21 03:35:17;;;;;;;5.90;3.50;;;10.80;99.90;10.80;100394.00;;;;4948587;28;108586;-61
2022/10/21 03:37:42;;;;;;;3.83;3.10;;;10.80;99.90;10.80;100386.00;;;;4949416;28;122089;-61
2022/10/21 03:40:08;;;;;;;5.00;2.73;;;10.80;99.90;10.80;100398.00;;;;4966607;28;93438;-61
2022/10/21 03:42:34;;;;;;;4.03;3.37;;;10.80;99.90;10.80;100367.00;;;;4949724;28;92904;-61
2022/10/21 03:45:00;;;;;;;4.40;3.53;;;10.80;99.90;10.80;100387.00;;;;4948918;28;108030;-59
2022/10/21 03:47:25;;;;;;;3.40;2.93;;;10.80;99.90;10.80;100387.00;;;;4942378;28;122703;-61
2022/10/21 03:49:51;;;;;;;4.60;3.17;;;10.80;99.90;10.90;100370.00;;;;4947199;28;124027;-60
2022/10/21 03:52:17;;;;;;;3.97;3.63;;;10.90;99.90;10.90;100374.00;;;;4945847;28;99621;-61
2022/10/21 03:54:42;;;;;;;5.03;3.13;;;10.90;99.90;11.00;100366.00;;;;4947524;28;108155;-61
2022/10/21 03:57:08;;;;;;;7.43;3.07;;;11.00;99.90;11.00;100355.00;;;;4948975;28;122425;-61
2022/10/21 03:59:34;;;;;;;3.00;2.70;;;11.00;99.90;11.00;100336.00;;;;4948007;28;93779;-61
2022/10/21 04:01:59;;;;;;;4.13;3.27;;;11.00;99.90;11.00;100333.00;;;;4941519;28;110342;-61
2022/10/21 04:04:25;;;;;;;4.00;2.97;;;11.10;99.90;11.00;100337.00;;;;4945557;28;108835;-62
2022/10/21 04:06:51;;;;;;;4.47;2.93;;;11.00;99.90;11.10;100345.00;;;;4948058;28;95385;-61
2022/10/21 04:09:16;;;;;;;6.30;3.83;;;11.00;99.90;11.10;100335.00;;;;4942787;28;120572;-61
2022/10/21 04:11:42;;;;;;;4.80;3.87;;;11.10;99.90;11.10;100342.00;;;;4953035;28;109819;-61
2022/10/21 04:14:08;;;;;;;4.07;3.30;;;11.10;99.90;11.20;100335.00;;;;4953274;28;109023;-61
2022/10/21 04:16:34;;;;;;;5.70;3.27;;;11.20;99.90;11.20;100343.00;;;;4947489;28;122908;-61
2022/10/21 04:19:00;;;;;;;5.47;3.03;;;11.20;99.90;11.20;100344.00;;;;4953889;28;93175;-59
2022/10/21 04:21:26;;;;;;;5.10;3.33;;;11.20;99.90;11.20;100340.00;;;;4950375;28;92924;-59
2022/10/21 04:23:52;;;;;;;17.53;4.37;;;11.20;99.90;11.20;100335.00;;;;4967798;28;108558;-61
2022/10/21 04:26:17;;;;;;;9.17;3.63;;;11.20;99.90;11.20;100335.00;;;;4953863;28;122853;-60
2022/10/21 04:28:43;;;;;;;3.87;3.10;;;11.20;99.90;11.20;100341.00;;;;4946392;28;121264;-60
2022/10/21 04:31:09;;;;;;;3.87;2.23;;;11.30;99.90;11.30;100333.00;;;;4948378;28;111371;-61
2022/10/21 04:33:34;;;;;;;3.93;3.10;;;11.30;99.90;11.30;100320.00;;;;4954326;28;93997;-60
2022/10/21 04:36:00;;;;;;;3.50;2.77;;;11.30;99.90;11.30;100318.00;;;;4948611;28;122864;-60
2022/10/21 04:38:27;;;;;;;4.87;3.40;;;11.30;99.90;11.30;100305.00;;;;4950287;28;92981;-61
2022/10/21 04:41:02;;;;;;;3.50;2.70;;;11.30;99.90;11.30;100307.00;;;;4953708;28;109628;-58
2022/10/21 04:43:28;;;;;;;3.90;3.27;;;11.30;99.90;11.30;100299.00;;;;4962858;28;92861;-60
2022/10/21 04:45:54;;;;;;;5.37;3.43;;;11.30;99.90;11.30;100283.00;;;;4941368;28;122361;-60
2022/10/21 04:48:21;;;;;;;4.50;3.33;;;11.30;99.90;11.30;100288.00;;;;4940874;28;121673;-60
2022/10/21 04:50:51;;;;;;;3.50;3.10;;;11.30;99.90;11.30;100304.00;;;;4943494;28;92133;-60
2022/10/21 04:53:17;;;;;;;3.80;2.43;;;11.40;99.90;11.40;100303.00;;;;4951034;28;92819;-60
2022/10/21 04:55:44;;;;;;;4.67;2.83;;;11.40;99.90;11.40;100297.00;;;;4953788;28;107903;-60
2022/10/21 04:58:10;;;;;;;5.03;3.37;;;11.30;99.90;11.40;100301.00;;;;4945665;28;123252;-58
2022/10/21 05:00:35;;;;;;;4.13;3.10;;;11.30;99.90;11.30;100280.00;;;;4951053;28;92968;-59
2022/10/21 05:03:01;;;;;;;5.00;3.90;;;11.40;99.90;11.40;100275.00;;;;4951695;28;92965;-60
2022/10/21 05:05:27;;;;;;;5.00;3.67;;;11.40;99.90;11.40;100264.00;;;;4949112;28;100587;-60
2022/10/21 05:07:53;;;;;;;5.23;3.90;;;11.40;99.90;11.40;100267.00;;;;4943784;28;93939;-60
2022/10/21 05:10:18;;;;;;;3.53;2.30;;;11.40;99.90;11.40;100252.00;;;;4949673;28;105736;-60
2022/10/21 05:12:44;;;;;;;3.33;2.60;;;11.40;99.90;11.40;100258.00;;;;4945444;28;92845;-61
2022/10/21 05:15:10;;;;;;;3.90;2.90;;;11.50;99.90;11.50;100265.00;;;;4951417;28;121898;-59
2022/10/21 05:17:35;;;;;;;3.20;2.10;;;11.40;99.90;11.50;100263.00;;;;4951560;28;93067;-58
2022/10/21 05:20:05;;;;;;;7.70;3.70;;;11.50;99.90;11.50;100268.00;;;;4946992;28;110152;-60
2022/10/21 05:22:31;;;;;;;4.33;3.10;;;11.50;99.90;11.50;100267.00;;;;4950507;28;93770;-60
2022/10/21 05:24:57;;;;;;;12.33;3.70;;;11.50;99.90;11.50;100268.00;;;;4950695;28;110911;-60
2022/10/21 05:27:22;;;;;;;6.40;3.50;;;11.50;99.90;11.50;100286.00;;;;4943046;28;122570;-59
2022/10/21 05:29:48;;;;;;;3.40;3.10;;;11.50;99.90;11.50;100283.00;;;;4953423;28;106116;-60
2022/10/21 05:32:14;;;;;;;4.63;3.03;;;11.50;99.90;11.50;100255.00;;;;4949977;28;107861;-60
2022/10/21 05:34:39;;;;;;;4.77;3.33;;;11.50;99.90;11.50;100252.00;;;;4946699;28;123344;-61
2022/10/21 05:37:05;;;;;;;3.83;3.00;;;11.50;99.90;11.50;100247.00;;;;4950867;28;113226;-59
2022/10/21 05:39:31;;;;;;;5.30;2.97;;;11.50;99.90;11.40;100248.00;;;;4949652;28;107369;-59
2022/10/21 05:41:56;;;;;;;3.60;2.73;;;11.50;99.90;11.40;100247.00;;;;4944855;28;98427;-60
2022/10/21 05:44:22;;;;;;;5.40;3.23;;;11.50;99.90;11.40;100247.00;;;;4946129;28;93847;-60
2022/10/21 05:46:48;;;;;;;3.80;3.27;;;11.40;99.90;11.40;100257.00;;;;4948396;28;115886;-59
2022/10/21 05:49:13;;;;;;;3.00;2.40;;;11.40;99.90;11.40;100264.00;;;;4949575;28;98294;-60
2022/10/21 05:51:39;;;;;;;4.77;2.90;;;11.40;99.90;11.40;100253.00;;;;4952195;28;108189;-60
2022/10/21 05:54:05;;;;;;;4.53;2.77;;;11.40;99.90;11.40;100240.00;;;;4951298;28;93133;-60
2022/10/21 05:56:31;;;;;;;3.67;3.23;;;11.40;99.90;11.30;100243.00;;;;4949618;28;108785;-60
2022/10/21 05:58:57;;;;;;;3.40;2.80;;;11.30;99.90;11.30;100246.00;;;;4952611;28;110191;-60
2022/10/21 06:01:22;;;;;;;4.40;3.03;;;11.40;99.90;11.30;100251.00;;;;4948214;28;98672;-59
2022/10/21 06:03:48;;;;;;;5.60;3.53;;;11.30;99.90;11.30;100250.00;;;;4940888;28;121637;-59
2022/10/21 06:06:14;;;;;;;4.53;3.50;;;11.30;99.90;11.30;100256.00;;;;4947835;28;121488;-60
2022/10/21 06:08:39;;;;;;;4.27;3.17;;;11.30;99.90;11.30;100257.00;;;;4946559;28;109194;-60
2022/10/21 06:11:12;;;;;;;3.87;3.47;;;11.30;99.90;11.30;100265.00;;;;4948330;28;93654;-59
2022/10/21 06:13:38;;;;;;;5.60;3.53;;;11.30;99.90;11.40;100256.00;;;;4953115;28;93644;-59
2022/10/21 06:16:06;;;;;;;4.53;2.90;;;11.40;99.90;11.40;100242.00;;;;4949787;28;93681;-60
2022/10/21 06:18:32;;;;;;;3.93;3.53;;;11.40;99.90;11.40;100242.00;;;;4949279;28;92778;-60
2022/10/21 06:20:58;;;;;;;4.27;2.90;;;11.40;99.90;11.40;100248.00;;;;4952954;28;92879;-60
2022/10/21 06:23:24;;;;;;;2.83;2.63;;;11.40;99.90;11.40;100238.00;;;;4945867;28;122734;-59
2022/10/21 06:26:02;;;;;;;3.17;2.77;;;11.40;99.90;11.50;100247.00;;;;4943777;28;95672;-60
2022/10/21 06:28:30;;;;;;;4.53;3.13;;;11.50;99.90;11.50;100251.00;;;;4946847;28;92576;-60
2022/10/21 06:30:56;;;;;;;5.23;3.50;;;11.50;99.90;11.50;100257.00;;;;4946373;28;93235;-59
2022/10/21 06:33:22;;;;;;;3.67;2.70;;;11.50;99.90;11.50;100252.00;;;;4949874;28;121735;-60
2022/10/21 06:35:48;;;;;;;3.57;2.97;;;11.50;99.90;11.50;100276.00;;;;4949706;28;107506;-60
2022/10/21 06:38:14;;;;;;;5.23;3.77;;;11.50;99.90;11.50;100274.00;;;;4947853;28;92793;-60
2022/10/21 06:40:41;;;;;;;4.10;2.77;;;11.50;99.90;11.50;100285.00;;;;4950541;28;92873;-59
2022/10/21 06:43:07;;;;;;;5.00;3.37;;;11.50;99.90;11.50;100271.00;;;;4950859;28;122421;-59
2022/10/21 06:45:33;;;;;;;3.87;3.30;;;11.50;99.90;11.50;100270.00;;;;4953380;28;93726;-59
2022/10/21 06:47:58;;;;;;;5.00;3.40;;;11.50;99.90;11.50;100276.00;;;;4950152;28;110286;-59
2022/10/21 06:50:24;;;;;;;4.30;3.13;;;11.50;99.90;11.60;100261.00;;;;4948577;28;108336;-58
2022/10/21 06:52:50;;;;;;;3.27;2.93;;;11.50;99.90;11.60;100261.00;;;;4950338;28;122704;-59
2022/10/21 06:55:17;;;;;;;3.60;2.97;;;11.60;99.90;11.60;100272.00;;;;4951188;28;93477;-59
2022/10/21 06:57:43;;;;;;;8.17;4.13;;;11.60;99.90;11.70;100272.00;;;;4948768;28;99653;-60
2022/10/21 07:00:11;;;;;;;5.17;2.83;;;11.70;99.90;11.80;100270.00;;;;4944689;28;96599;-58
2022/10/21 07:02:36;;;;;;;3.90;2.63;;;11.70;99.90;11.80;100271.00;;;;4947629;28;115030;-60
2022/10/21 07:05:03;;;;;;;2.40;2.13;;;11.80;99.90;11.80;100260.00;;;;4948946;28;122734;-60
2022/10/21 07:07:29;;;;;;;2.57;2.17;;;11.80;99.90;11.90;100265.00;;;;4946504;28;92847;-60
2022/10/21 07:09:56;;;;;;;4.20;3.37;;;11.80;99.90;11.90;100283.00;;;;4952412;28;96527;-59
2022/10/21 07:12:26;;;;;;;5.83;3.13;;;11.90;99.90;11.90;100289.00;;;;4944849;28;93031;-60
2022/10/21 07:14:53;;;;;;;5.03;2.93;;;11.80;99.90;11.90;100289.00;;;;4950218;28;93900;-59
2022/10/21 07:17:19;;;;;;;4.43;2.97;;;11.90;99.90;12.00;100267.00;;;;4952583;28;92163;-59
2022/10/21 07:19:45;;;;;;;3.60;3.10;;;11.90;99.90;12.00;100278.00;;;;4947659;28;92700;-59
2022/10/21 07:22:13;;;;;;;6.93;3.87;;;12.00;99.90;12.10;100282.00;;;;4950869;28;122835;-60
2022/10/21 07:24:39;;;;;;;3.87;3.13;;;12.00;99.90;12.20;100275.00;;;;4950200;28;94029;-59
2022/10/21 07:27:05;;;;;;;4.40;2.93;;;12.20;99.90;12.40;100286.00;;;;4947511;28;92776;-60
2022/10/21 07:29:31;;;;;;;4.77;3.03;;;12.30;99.90;12.50;100288.00;;;;4948073;28;108219;-58
2022/10/21 07:31:56;;;;;;;3.10;2.80;;;12.40;99.90;12.70;100280.00;;;;4950896;28;121827;-57
2022/10/21 07:34:23;;;;;;;6.87;6.20;;;12.50;99.90;12.80;100288.00;;;;4947679;28;105777;-59
2022/10/21 07:36:51;;;;;;;5.17;3.07;;;12.70;99.90;13.00;100288.00;;;;4949582;28;93131;-59
2022/10/21 07:39:21;;;;;;;3.13;2.57;;;12.90;99.90;13.30;100276.00;;;;4949943;28;92811;-60
2022/10/21 07:41:54;;;;;;;3.73;2.27;;;13.10;99.90;13.50;100284.00;;;;4948569;28;114205;-60
2022/10/21 07:44:22;;;;;;;10.27;2.90;;;13.30;99.90;13.60;100282.00;;;;4954760;28;94885;-60
2022/10/21 07:46:49;;;;;;;2.87;2.13;;;13.50;99.90;13.80;100267.00;;;;4946843;28;104695;-59
2022/10/21 07:49:17;;;;;;;4.00;2.37;;;13.70;99.90;13.90;100261.00;;;;4945051;28;93949;-60
2022/10/21 07:51:44;;;;;;;4.07;2.43;;;13.80;99.90;13.80;100257.00;;;;4948419;28;93532;-59
2022/10/21 07:54:12;;;;;;;2.53;2.23;;;13.80;99.90;13.90;100262.00;;;;4951156;28;92689;-59
2022/10/21 07:56:43;;;;;;;3.13;2.10;;;13.80;99.90;13.80;100258.00;;;;4945116;28;93184;-60
2022/10/21 07:59:10;;;;;;;4.37;3.00;;;13.80;99.90;13.80;100260.00;;;;4950181;28;102404;-60
2022/10/21 08:01:35;;;;;;;3.17;2.70;;;13.80;99.90;13.80;100264.00;;;;4946368;28;93490;-59
2022/10/21 08:04:01;;;;;;;2.07;1.90;;;13.70;99.90;13.80;100271.00;;;;4942208;28;109932;-59
2022/10/21 08:06:28;;;;;;;7.13;3.27;;;13.80;99.90;13.80;100272.00;;;;4936753;28;110459;-60
2022/10/21 08:08:57;;;;;;;3.77;3.27;;;13.70;99.90;13.80;100285.00;;;;4943553;28;92890;-60
2022/10/21 08:11:27;;;;;;;4.93;2.70;;;13.80;99.90;13.80;100282.00;;;;4947807;28;94375;-59
2022/10/21 08:13:53;;;;;;;3.10;2.47;;;13.70;99.90;13.70;100279.00;;;;4950817;28;93999;-59
2022/10/21 08:16:19;;;;;;;3.40;2.67;;;13.70;99.90;13.60;100289.00;;;;4952280;28;92799;-60
2022/10/21 08:18:45;;;;;;;2.67;2.07;;;13.60;99.90;13.50;100288.00;;;;4944490;28;92773;-59
2022/10/21 08:21:11;;;;;;;2.77;2.57;;;13.50;99.90;13.40;100279.00;;;;4951406;28;99391;-60
2022/10/21 08:23:37;;;;;;;5.70;2.83;;;13.50;99.90;13.40;100284.00;;;;4947490;28;97756;-60
2022/10/21 08:26:03;;;;;;;7.53;3.03;;;13.40;99.90;13.30;100283.00;;;;4946644;28;94548;-60
2022/10/21 08:28:30;;;;;;;2.90;2.37;;;13.30;99.90;13.30;100275.00;;;;4944721;28;92883;-60
2022/10/21 08:31:14;;;;;;;4.13;2.53;;;13.30;99.90;13.30;100264.00;;;;4940843;28;110799;-59
2022/10/21 08:33:40;;;;;;;4.63;2.57;;;13.30;99.90;13.40;100264.00;;;;4947532;28;113984;-60
2022/10/21 08:36:08;;;;;;;2.20;1.93;;;13.40;99.90;13.50;100267.00;;;;4949551;28;106224;-60
2022/10/21 08:38:34;;;;;;;3.83;2.47;;;13.40;99.90;13.50;100257.00;;;;4944882;28;93974;-59
2022/10/21 08:41:00;;;;;;;3.93;2.73;;;13.50;99.90;13.50;100251.00;;;;4946333;28;93013;-60
2022/10/21 08:43:33;;;;;;;4.07;2.10;;;13.40;99.90;13.50;100252.00;;;;4960907;28;93873;-60
2022/10/21 08:46:29;;;;;;;3.43;2.47;;;13.40;99.90;13.50;100248.00;;;;4942540;28;92990;-60
2022/10/21 08:49:07;;;;;;;2.20;2.00;;;13.50;99.90;13.60;100257.00;;;;4971335;28;98172;-60
2022/10/21 08:51:40;;;;;;;5.33;2.80;;;13.50;99.90;13.70;100251.00;;;;4945975;28;92837;-58
2022/10/21 08:54:21;;;;;;;3.27;2.37;;;13.60;99.90;13.70;100237.00;;;;4964802;28;116992;-59
2022/10/21 08:56:51;;;;;;;2.53;2.20;;;13.60;99.90;13.70;100231.00;;;;4950969;28;92234;-58
2022/10/21 08:59:25;;;;;;;4.80;2.47;;;13.60;99.90;13.80;100233.00;;;;4950692;28;109506;-58
2022/10/21 09:02:15;;;;;;;4.37;2.80;;;13.70;99.90;13.80;100248.00;;;;4969935;28;97904;-60
2022/10/21 09:05:12;;;;;;;2.80;1.97;;;13.70;99.90;14.00;100234.00;;;;4945103;28;115446;-60
2022/10/21 09:08:16;;;;;;;2.50;1.97;;;13.90;99.90;14.10;100222.00;;;;4947116;28;92790;-59
2022/10/21 09:11:00;;;;;;;2.40;1.87;;;14.00;99.90;14.10;100216.00;;;;4952926;28;93023;-60
2022/10/21 09:13:52;;;;;;;2.00;1.70;;;14.00;99.90;14.10;100222.00;;;;4950514;28;93930;-60
2022/10/21 09:16:47;;;;;;;3.07;2.57;;;14.10;99.90;14.20;100228.00;;;;4950501;28;92702;-59
2022/10/21 09:19:44;;;;;;;2.03;1.77;;;14.10;99.90;14.50;100223.00;;;;4964964;28;105814;-60
2022/10/21 09:22:40;;;;;;;2.43;2.23;;;14.30;99.90;14.80;100217.00;;;;4966613;28;102400;-60
2022/10/21 09:26:00;;;;;;;1.70;1.60;;;14.60;99.90;15.10;100212.00;;;;4942121;28;92439;-60
2022/10/21 09:28:28;;;;;;;4.57;2.70;;;14.90;99.30;15.30;100201.00;;;;4945335;28;100609;-59
2022/10/21 09:30:56;;;;;;;4.00;1.97;;;15.10;98.00;15.40;100203.00;;;;4950297;28;92900;-58
2022/10/21 09:33:31;;;;;;;4.07;2.80;;;15.20;97.80;15.50;100196.00;;;;4951903;28;101611;-58
2022/10/21 09:36:12;;;;;;;3.50;2.77;;;15.30;97.50;15.70;100199.00;;;;4946500;28;115357;-60
2022/10/21 09:38:59;;;;;;;3.20;2.60;;;15.50;97.20;16.10;100200.00;;;;4948894;28;92959;-59
2022/10/21 09:41:39;;;;;;;3.67;1.65;;;15.80;97.40;16.60;100196.00;;;;4951372;28;93027;-59
2022/10/21 09:44:05;;;;;;;4.17;2.60;;;16.20;97.30;17.00;100198.00;;;;4964843;28;101016;-59
2022/10/21 09:46:30;;;;;;;2.10;1.90;;;16.60;96.70;17.20;100197.00;;;;4953204;28;121918;-60
2022/10/21 09:48:57;;;;;;;5.53;2.28;;;16.90;94.90;17.40;100192.00;;;;4941989;28;124350;-60
2022/10/21 09:51:31;;;;;;;2.15;1.63;;;17.10;93.00;17.50;100191.00;;;;4946910;28;92221;-61
2022/10/21 09:54:16;;;;;;;1.60;1.42;;;17.20;91.90;17.70;100194.00;;;;4949997;28;92811;-60
2022/10/21 09:57:17;;;;;;;2.42;1.70;;;17.30;91.90;17.70;100200.00;;;;4948380;28;115733;-59
2022/10/21 09:59:58;;;;;;;3.28;2.00;;;17.50;90.70;17.70;100198.00;;;;4962280;28;94272;-59
2022/10/21 10:02:35;;;;;;;2.08;1.60;;;17.50;91.50;17.80;100204.00;;;;4945164;28;93567;-60
2022/10/21 10:05:04;;;;;;;2.97;2.20;;;17.60;91.00;17.80;100197.00;;;;4950119;28;101435;-60
2022/10/21 10:07:34;;;;;;;3.50;1.55;;;17.60;90.60;17.70;100184.00;;;;4948413;28;93722;-59
2022/10/21 10:10:02;;;;;;;2.90;1.70;;;17.50;90.70;17.60;100178.00;;;;4942479;28;105464;-60
2022/10/21 10:12:28;;;;;;;1.98;1.70;;;17.50;90.00;17.50;100176.00;;;;4945122;28;92848;-59
2022/10/21 10:14:55;;;;;;;3.00;2.25;;;17.40;89.70;17.30;100188.00;;;;4952695;28;92947;-59
2022/10/21 10:17:25;;;;;;;1.92;1.75;;;17.20;90.00;17.10;100190.00;;;;4949344;28;93476;-60
2022/10/21 10:20:03;;;;;;;3.22;2.30;;;17.00;90.40;17.00;100183.00;;;;4944252;28;92839;-60
2022/10/21 10:22:37;;;;;;;3.13;1.92;;;16.90;90.70;17.00;100179.00;;;;4946492;28;93157;-61
2022/10/21 10:25:08;;;;;;;3.03;2.03;;;16.80;91.10;17.00;100181.00;;;;4948808;28;99648;-60
2022/10/21 10:27:35;;;;;;;2.30;1.85;;;16.90;91.50;17.10;100188.00;;;;4948170;28;114194;-60
2022/10/21 10:30:01;;;;;;;4.18;2.05;;;16.90;91.30;17.10;100187.00;;;;4952073;28;122525;-61
2022/10/21 10:32:33;;;;;;;1.55;1.45;;;16.90;91.40;17.10;100190.00;;;;4944808;28;93145;-60
2022/10/21 10:35:04;;;;;;;2.08;1.50;;;16.90;91.60;17.10;100189.00;;;;4949139;28;92733;-60
2022/10/21 10:37:35;;;;;;;5.45;2.05;;;16.90;91.80;17.10;100181.00;;;;4963857;28;94839;-61
2022/10/21 10:40:07;;;;;;;2.70;1.83;;;17.00;91.70;17.10;100174.00;;;;4949547;28;115810;-59
2022/10/21 10:42:36;;;;;;;2.45;1.80;;;17.00;91.30;17.10;100174.00;;;;4948008;28;92263;-59
2022/10/21 10:45:12;;;;;;;3.33;2.13;;;16.90;91.40;17.00;100167.00;;;;4950935;28;92985;-59
2022/10/21 10:47:47;;;;;;;3.22;1.90;;;16.90;91.10;17.00;100188.00;;;;4951948;28;93067;-60
2022/10/21 10:50:48;;;;;;;3.53;2.55;;;16.90;91.30;16.80;100181.00;;;;4951701;28;94073;-60
2022/10/21 10:53:20;;;;;;;1.77;1.65;;;16.80;91.20;16.70;100175.00;;;;4947237;28;92753;-60
2022/10/21 10:56:04;;;;;;;3.42;1.88;;;16.60;91.30;16.70;100185.00;;;;4947945;28;92828;-60
2022/10/21 10:58:35;;;;;;;2.83;2.10;;;16.60;91.80;16.60;100175.00;;;;4951045;28;98371;-60
2022/10/21 11:01:08;;;;;;;2.45;2.25;;;16.50;91.80;16.50;100174.00;;;;4948986;28;93102;-59